TimePST,TemperatureF,Dew PointF,Humidity,Sea Level PressureIn,VisibilityMPH,Wind Direction,Wind SpeedMPH,Gust SpeedMPH,PrecipitationIn,Events,Conditions,WindDirDegrees,DateUTC
12:53 AM,55.0,37.9,53,30.07,10.0,NNE,4.6,-,N/A,,Clear,20,2012-11-24 08:53:00
1:53 AM,54.0,37.9,55,30.06,10.0,Calm,Calm,-,N/A,,Clear,0,2012-11-24 09:53:00
2:53 AM,55.0,37.0,51,30.06,10.0,ENE,3.5,-,N/A,,Clear,60,2012-11-24 10:53:00
3:53 AM,54.0,36.0,51,30.05,10.0,NNE,3.5,-,N/A,,Clear,20,2012-11-24 11:53:00
4:53 AM,53.1,35.1,50,30.06,10.0,NE,3.5,-,N/A,,Clear,50,2012-11-24 12:53:00
5:53 AM,53.1,35.1,50,30.06,10.0,NNE,4.6,-,N/A,,Clear,20,2012-11-24 13:53:00
6:53 AM,53.1,34.0,48,30.08,10.0,NE,4.6,-,N/A,,Clear,50,2012-11-24 14:53:00
7:53 AM,62.1,34.0,35,30.07,10.0,Calm,Calm,-,N/A,,Clear,0,2012-11-24 15:53:00
8:53 AM,71.1,30.9,23,30.06,10.0,Calm,Calm,-,N/A,,Clear,0,2012-11-24 16:53:00
9:53 AM,73.9,30.0,20,30.05,10.0,ESE,3.5,-,N/A,,Clear,120,2012-11-24 17:53:00
10:53 AM,78.1,28.9,17,30.02,10.0,Calm,Calm,-,N/A,,Clear,0,2012-11-24 18:53:00
11:53 AM,81.0,28.9,15,29.98,10.0,Calm,Calm,-,N/A,,Clear,0,2012-11-24 19:53:00
12:53 PM,84.9,28.9,13,29.95,10.0,Calm,Calm,-,N/A,,Clear,0,2012-11-24 20:53:00
1:53 PM,87.1,23.0,10,29.92,10.0,West,5.8,-,N/A,,Clear,260,2012-11-24 21:53:00
2:53 PM,87.1,26.1,11,29.91,10.0,WSW,4.6,-,N/A,,Clear,250,2012-11-24 22:53:00
3:53 PM,86.0,28.0,12,29.91,10.0,West,8.1,-,N/A,,Clear,260,2012-11-24 23:53:00
4:53 PM,80.1,28.0,15,29.90,10.0,WNW,9.2,-,N/A,,Clear,290,2012-11-25 00:53:00
5:53 PM,73.9,37.0,26,29.91,10.0,WSW,5.8,-,N/A,,Clear,250,2012-11-25 01:53:00
6:53 PM,71.1,39.0,31,29.91,10.0,SSW,4.6,-,N/A,,Clear,200,2012-11-25 02:53:00
7:53 PM,64.9,45.0,48,29.93,10.0,ESE,3.5,-,N/A,,Clear,120,2012-11-25 03:53:00
8:53 PM,66.0,42.1,42,29.93,10.0,Calm,Calm,-,N/A,,Clear,0,2012-11-25 04:53:00
9:53 PM,62.1,39.9,44,29.93,10.0,NE,4.6,-,N/A,,Clear,50,2012-11-25 05:53:00
10:53 PM,59.0,39.9,49,29.93,10.0,Calm,Calm,-,N/A,,Clear,0,2012-11-25 06:53:00
11:53 PM,57.0,39.9,53,29.93,10.0,NNW,3.5,-,N/A,,Clear,340,2012-11-25 07:53:00